sensor_id;sensor_type;location;lat;lon;timestamp;pressure;altitude;pressure_sealevel;temperature;humidity
41800;BME280;27468;47.460;19.034;2023-01-25T00:01:42;102006.84;;;0.67;93.64
41800;BME280;27468;47.460;19.034;2023-01-25T00:04:08;102017.44;;;0.72;93.61
41800;BME280;27468;47.460;19.034;2023-01-25T00:06:33;102010.34;;;0.68;93.59
41800;BME280;27468;47.460;19.034;2023-01-25T00:08:59;102005.59;;;0.59;93.32
41800;BME280;27468;47.460;19.034;2023-01-25T00:11:25;102029.25;;;0.65;93.37
41800;BME280;27468;47.460;19.034;2023-01-25T00:13:53;102019.63;;;0.62;93.43
41800;BME280;27468;47.460;19.034;2023-01-25T00:16:18;101968.47;;;0.23;94.11
41800;BME280;27468;47.460;19.034;2023-01-25T00:18:44;102008.03;;;0.37;94.42
41800;BME280;27468;47.460;19.034;2023-01-25T00:21:14;102034.41;;;0.46;94.68
41800;BME280;27468;47.460;19.034;2023-01-25T00:23:39;102028.34;;;0.45;94.81
41800;BME280;27468;47.460;19.034;2023-01-25T00:26:05;101999.66;;;0.24;95.07
41800;BME280;27468;47.460;19.034;2023-01-25T00:28:30;102016.03;;;0.41;94.84
41800;BME280;27468;47.460;19.034;2023-01-25T00:31:03;102032.78;;;0.48;94.62
41800;BME280;27468;47.460;19.034;2023-01-25T00:33:33;101983.81;;;0.18;94.29
41800;BME280;27468;47.460;19.034;2023-01-25T00:39:02;102037.97;;;0.48;93.88
41800;BME280;27468;47.460;19.034;2023-01-25T00:41:28;102026.50;;;0.43;94.04
41800;BME280;27468;47.460;19.034;2023-01-25T00:43:53;102028.28;;;0.44;93.78
41800;BME280;27468;47.460;19.034;2023-01-25T00:46:19;102021.97;;;0.39;93.63
41800;BME280;27468;47.460;19.034;2023-01-25T00:48:44;102031.38;;;0.37;94.17
41800;BME280;27468;47.460;19.034;2023-01-25T00:51:10;101978.94;;;0.07;93.89
41800;BME280;27468;47.460;19.034;2023-01-25T00:53:36;102036.44;;;0.33;93.67
41800;BME280;27468;47.460;19.034;2023-01-25T00:56:02;101983.38;;;0.09;93.75
41800;BME280;27468;47.460;19.034;2023-01-25T00:58:27;102039.63;;;0.28;94.07
41800;BME280;27468;47.460;19.034;2023-01-25T01:00:54;102025.47;;;0.21;93.94
41800;BME280;27468;47.460;19.034;2023-01-25T01:03:19;102040.56;;;0.30;93.73
41800;BME280;27468;47.460;19.034;2023-01-25T01:05:45;102014.63;;;0.12;93.60
41800;BME280;27468;47.460;19.034;2023-01-25T01:08:12;102029.75;;;0.21;93.45
41800;BME280;27468;47.460;19.034;2023-01-25T01:10:37;101976.22;;;-0.14;93.50
41800;BME280;27468;47.460;19.034;2023-01-25T01:13:03;102034.41;;;0.10;93.60
41800;BME280;27468;47.460;19.034;2023-01-25T01:15:29;102045.41;;;0.22;93.81
41800;BME280;27468;47.460;19.034;2023-01-25T01:17:54;102050.13;;;0.13;93.98
41800;BME280;27468;47.460;19.034;2023-01-25T01:20:20;101985.53;;;-0.18;93.67
41800;BME280;27468;47.460;19.034;2023-01-25T01:22:45;102043.81;;;0.08;93.70
41800;BME280;27468;47.460;19.034;2023-01-25T01:25:10;102062.13;;;0.11;93.83
41800;BME280;27468;47.460;19.034;2023-01-25T01:27:37;102046.34;;;0.07;94.24
41800;BME280;27468;47.460;19.034;2023-01-25T01:30:03;102045.38;;;0.05;94.62
41800;BME280;27468;47.460;19.034;2023-01-25T01:32:29;102040.84;;;0.00;94.80
41800;BME280;27468;47.460;19.034;2023-01-25T01:34:54;102042.63;;;0.02;94.78
41800;BME280;27468;47.460;19.034;2023-01-25T01:37:19;102047.69;;;-0.02;94.95
41800;BME280;27468;47.460;19.034;2023-01-25T01:39:45;102044.88;;;-0.06;94.77
41800;BME280;27468;47.460;19.034;2023-01-25T01:42:10;101987.38;;;-0.33;94.80
41800;BME280;27468;47.460;19.034;2023-01-25T01:44:46;102056.47;;;0.02;94.90
41800;BME280;27468;47.460;19.034;2023-01-25T01:47:40;102048.78;;;0.04;94.74
41800;BME280;27468;47.460;19.034;2023-01-25T01:50:18;102033.53;;;-0.08;94.32
41800;BME280;27468;47.460;19.034;2023-01-25T01:52:45;102038.81;;;-0.07;94.56
41800;BME280;27468;47.460;19.034;2023-01-25T01:55:17;102047.69;;;-0.02;94.65
41800;BME280;27468;47.460;19.034;2023-01-25T01:57:50;101973.88;;;-0.44;94.63
41800;BME280;27468;47.460;19.034;2023-01-25T02:00:20;102030.06;;;-0.09;94.62
41800;BME280;27468;47.460;19.034;2023-01-25T02:02:49;102042.28;;;-0.06;94.67
41800;BME280;27468;47.460;19.034;2023-01-25T02:05:37;101991.06;;;-0.28;94.53
41800;BME280;27468;47.460;19.034;2023-01-25T02:08:08;102020.84;;;-0.20;94.84
41800;BME280;27468;47.460;19.034;2023-01-25T02:10:35;102034.44;;;-0.08;94.96
41800;BME280;27468;47.460;19.034;2023-01-25T02:13:01;102018.34;;;-0.18;94.50
41800;BME280;27468;47.460;19.034;2023-01-25T02:15:28;101983.97;;;-0.32;94.38
41800;BME280;27468;47.460;19.034;2023-01-25T02:17:57;102028.13;;;-0.13;94.68
41800;BME280;27468;47.460;19.034;2023-01-25T02:20:37;102027.97;;;-0.16;94.81
41800;BME280;27468;47.460;19.034;2023-01-25T02:23:31;102025.97;;;-0.21;95.02
41800;BME280;27468;47.460;19.034;2023-01-25T02:26:03;102025.22;;;-0.19;94.89
41800;BME280;27468;47.460;19.034;2023-01-25T02:28:35;102038.09;;;-0.20;95.06
41800;BME280;27468;47.460;19.034;2023-01-25T02:31:02;102005.75;;;-0.28;95.09
41800;BME280;27468;47.460;19.034;2023-01-25T02:33:28;102027.66;;;-0.22;95.17
41800;BME280;27468;47.460;19.034;2023-01-25T02:36:15;101995.88;;;-0.36;94.81
41800;BME280;27468;47.460;19.034;2023-01-25T02:38:50;101987.94;;;-0.39;94.88
41800;BME280;27468;47.460;19.034;2023-01-25T02:41:22;101949.00;;;-0.58;94.93
41800;BME280;27468;47.460;19.034;2023-01-25T02:43:48;102003.44;;;-0.22;94.62
41800;BME280;27468;47.460;19.034;2023-01-25T02:48:45;101971.28;;;-0.44;94.45
41800;BME280;27468;47.460;19.034;2023-01-25T02:51:11;101995.28;;;-0.30;94.43
41800;BME280;27468;47.460;19.034;2023-01-25T02:53:36;101989.72;;;-0.38;94.54
41800;BME280;27468;47.460;19.034;2023-01-25T02:56:02;101990.53;;;-0.39;94.78
41800;BME280;27468;47.460;19.034;2023-01-25T02:58:27;101984.78;;;-0.33;94.57
41800;BME280;27468;47.460;19.034;2023-01-25T03:00:54;101991.44;;;-0.38;94.81
41800;BME280;27468;47.460;19.034;2023-01-25T03:03:20;101989.72;;;-0.38;94.84
41800;BME280;27468;47.460;19.034;2023-01-25T03:05:45;101917.22;;;-0.72;94.53
41800;BME280;27468;47.460;19.034;2023-01-25T03:08:11;101989.06;;;-0.34;94.26
41800;BME280;27468;47.460;19.034;2023-01-25T03:10:36;101991.28;;;-0.41;94.19
41800;BME280;27468;47.460;19.034;2023-01-25T03:13:02;101981.88;;;-0.39;94.02
41800;BME280;27468;47.460;19.034;2023-01-25T03:15:27;101984.47;;;-0.39;93.87
41800;BME280;27468;47.460;19.034;2023-01-25T03:17:54;101966.53;;;-0.52;93.87
41800;BME280;27468;47.460;19.034;2023-01-25T03:20:20;101970.97;;;-0.50;93.67
41800;BME280;27468;47.460;19.034;2023-01-25T03:22:46;101974.28;;;-0.52;94.00
41800;BME280;27468;47.460;19.034;2023-01-25T03:25:11;101909.56;;;-0.86;93.94
41800;BME280;27468;47.460;19.034;2023-01-25T03:27:36;101961.97;;;-0.58;93.99
41800;BME280;27468;47.460;19.034;2023-01-25T03:30:02;101976.97;;;-0.51;93.94
41800;BME280;27468;47.460;19.034;2023-01-25T03:32:28;101921.88;;;-0.82;93.88
41800;BME280;27468;47.460;19.034;2023-01-25T03:34:53;101974.59;;;-0.46;94.00
41800;BME280;27468;47.460;19.034;2023-01-25T03:37:19;101949.84;;;-0.57;94.30
41800;BME280;27468;47.460;19.034;2023-01-25T03:39:44;101915.53;;;-0.71;94.46
41800;BME280;27468;47.460;19.034;2023-01-25T03:42:09;101983.16;;;-0.31;94.30
41800;BME280;27468;47.460;19.034;2023-01-25T03:44:35;101989.84;;;-0.18;94.57
41800;BME280;27468;47.460;19.034;2023-01-25T03:47:00;101968.50;;;-0.30;94.59
41800;BME280;27468;47.460;19.034;2023-01-25T03:49:26;101980.44;;;-0.16;94.74
41800;BME280;27468;47.460;19.034;2023-01-25T03:51:52;101919.47;;;-0.44;94.77
41800;BME280;27468;47.460;19.034;2023-01-25T03:54:18;101962.94;;;-0.20;95.02
41800;BME280;27468;47.460;19.034;2023-01-25T03:56:48;101968.34;;;-0.16;94.88
41800;BME280;27468;47.460;19.034;2023-01-25T03:59:14;101930.28;;;-0.35;94.86
41800;BME280;27468;47.460;19.034;2023-01-25T04:01:39;101921.31;;;-0.41;94.62
41800;BME280;27468;47.460;19.034;2023-01-25T04:04:05;101974.66;;;-0.11;94.62
41800;BME280;27468;47.460;19.034;2023-01-25T04:06:30;101967.63;;;-0.13;94.45
41800;BME280;27468;47.460;19.034;2023-01-25T04:08:56;101966.56;;;-0.17;94.10
41800;BME280;27468;47.460;19.034;2023-01-25T04:11:21;101968.66;;;-0.10;94.02
41800;BME280;27468;47.460;19.034;2023-01-25T04:13:47;101974.88;;;-0.06;93.70
41800;BME280;27468;47.460;19.034;2023-01-25T04:16:12;101971.84;;;-0.15;93.67
41800;BME280;27468;47.460;19.034;2023-01-25T04:18:37;101927.31;;;-0.42;93.45
41800;BME280;27468;47.460;19.034;2023-01-25T04:21:04;101988.44;;;-0.12;93.11
41800;BME280;27468;47.460;19.034;2023-01-25T04:23:29;101994.66;;;-0.08;93.04
41800;BME280;27468;47.460;19.034;2023-01-25T04:26:00;101984.50;;;-0.04;93.48
41800;BME280;27468;47.460;19.034;2023-01-25T04:28:26;101983.00;;;0.02;93.81
41800;BME280;27468;47.460;19.034;2023-01-25T04:30:53;101933.69;;;-0.18;93.87
41800;BME280;27468;47.460;19.034;2023-01-25T04:33:18;101967.59;;;0.05;94.04
41800;BME280;27468;47.460;19.034;2023-01-25T04:35:44;101995.44;;;0.26;94.25
41800;BME280;27468;47.460;19.034;2023-01-25T04:38:10;101937.91;;;-0.02;94.41
41800;BME280;27468;47.460;19.034;2023-01-25T04:40:36;101980.91;;;0.30;94.49
41800;BME280;27468;47.460;19.034;2023-01-25T04:43:01;101964.31;;;0.26;94.50
41800;BME280;27468;47.460;19.034;2023-01-25T04:45:27;101978.47;;;0.33;94.83
41800;BME280;27468;47.460;19.034;2023-01-25T04:48:03;101989.28;;;0.42;94.57
41800;BME280;27468;47.460;19.034;2023-01-25T04:50:29;101935.34;;;0.17;94.65
41800;BME280;27468;47.460;19.034;2023-01-25T04:52:55;101960.88;;;0.45;94.48
41800;BME280;27468;47.460;19.034;2023-01-25T04:55:20;101987.44;;;0.59;94.37
41800;BME280;27468;47.460;19.034;2023-01-25T04:57:49;101980.44;;;0.56;94.31
41800;BME280;27468;47.460;19.034;2023-01-25T05:00:15;101920.97;;;0.24;94.30
41800;BME280;27468;47.460;19.034;2023-01-25T05:02:41;101989.66;;;0.69;94.35
41800;BME280;27468;47.460;19.034;2023-01-25T05:05:07;101981.03;;;0.70;94.28
41800;BME280;27468;47.460;19.034;2023-01-25T05:07:32;101972.06;;;0.63;94.04
41800;BME280;27468;47.460;19.034;2023-01-25T05:09:58;101932.47;;;0.48;94.06
41800;BME280;27468;47.460;19.034;2023-01-25T05:12:23;101992.19;;;0.87;94.10
41800;BME280;27468;47.460;19.034;2023-01-25T05:14:49;101983.38;;;0.83;93.97
41800;BME280;27468;47.460;19.034;2023-01-25T05:17:14;101991.44;;;0.89;94.05
41800;BME280;27468;47.460;19.034;2023-01-25T05:19:40;101933.22;;;0.65;93.88
41800;BME280;27468;47.460;19.034;2023-01-25T05:22:06;102004.97;;;1.02;93.91
41800;BME280;27468;47.460;19.034;2023-01-25T05:24:35;101988.38;;;0.98;94.00
41800;BME280;27468;47.460;19.034;2023-01-25T05:27:02;101938.00;;;0.75;93.85
41800;BME280;27468;47.460;19.034;2023-01-25T05:29:36;101986.31;;;1.10;93.94
41800;BME280;27468;47.460;19.034;2023-01-25T05:32:13;101946.56;;;0.92;94.00
41800;BME280;27468;47.460;19.034;2023-01-25T05:34:39;101990.94;;;1.17;94.39
41800;BME280;27468;47.460;19.034;2023-01-25T05:37:07;101990.19;;;1.20;94.49
41800;BME280;27468;47.460;19.034;2023-01-25T05:39:33;101969.09;;;1.12;94.67
41800;BME280;27468;47.460;19.034;2023-01-25T05:41:58;101979.03;;;1.22;94.87
41800;BME280;27468;47.460;19.034;2023-01-25T05:44:24;101944.63;;;1.07;95.31
41800;BME280;27468;47.460;19.034;2023-01-25T05:46:50;101906.84;;;0.94;95.61
41800;BME280;27468;47.460;19.034;2023-01-25T05:49:16;101989.47;;;1.43;96.04
41800;BME280;27468;47.460;19.034;2023-01-25T05:51:42;101951.81;;;1.33;95.97
41800;BME280;27468;47.460;19.034;2023-01-25T05:54:11;101948.25;;;1.31;95.98
41800;BME280;27468;47.460;19.034;2023-01-25T05:56:37;101975.91;;;1.50;96.22
41800;BME280;27468;47.460;19.034;2023-01-25T05:59:03;101985.19;;;1.64;96.17
41800;BME280;27468;47.460;19.034;2023-01-25T06:01:28;101979.09;;;1.64;96.17
41800;BME280;27468;47.460;19.034;2023-01-25T06:03:54;101979.28;;;1.69;95.99
41800;BME280;27468;47.460;19.034;2023-01-25T06:06:20;102001.94;;;1.71;95.99
41800;BME280;27468;47.460;19.034;2023-01-25T06:08:46;101977.19;;;1.60;96.24
41800;BME280;27468;47.460;19.034;2023-01-25T06:11:18;101973.56;;;1.56;96.16
41800;BME280;27468;47.460;19.034;2023-01-25T06:13:44;102002.75;;;1.70;96.65
41800;BME280;27468;47.460;19.034;2023-01-25T06:16:09;101997.31;;;1.64;96.72
41800;BME280;27468;47.460;19.034;2023-01-25T06:18:35;101998.25;;;1.66;96.75
41800;BME280;27468;47.460;19.034;2023-01-25T06:21:01;101992.59;;;1.55;96.68
41800;BME280;27468;47.460;19.034;2023-01-25T06:23:27;102005.50;;;1.73;97.02
41800;BME280;27468;47.460;19.034;2023-01-25T06:25:57;101982.03;;;1.72;96.58
41800;BME280;27468;47.460;19.034;2023-01-25T06:28:22;101965.22;;;1.63;96.40
41800;BME280;27468;47.460;19.034;2023-01-25T06:30:48;102005.09;;;1.85;96.35
41800;BME280;27468;47.460;19.034;2023-01-25T06:33:13;102010.66;;;1.94;96.13
41800;BME280;27468;47.460;19.034;2023-01-25T06:35:38;101999.88;;;1.85;95.75
41800;BME280;27468;47.460;19.034;2023-01-25T06:38:05;102008.38;;;2.02;95.72
41800;BME280;27468;47.460;19.034;2023-01-25T06:40:30;101973.38;;;1.93;95.64
41800;BME280;27468;47.460;19.034;2023-01-25T06:43:05;101959.22;;;1.87;95.26
41800;BME280;27468;47.460;19.034;2023-01-25T06:45:30;101998.66;;;2.18;94.86
41800;BME280;27468;47.460;19.034;2023-01-25T06:47:55;101951.47;;;1.88;93.91
41800;BME280;27468;47.460;19.034;2023-01-25T06:50:21;102025.94;;;2.28;93.52
41800;BME280;27468;47.460;19.034;2023-01-25T06:52:51;102014.69;;;2.29;93.39
41800;BME280;27468;47.460;19.034;2023-01-25T06:55:16;101977.53;;;2.11;92.43
41800;BME280;27468;47.460;19.034;2023-01-25T06:57:42;102015.81;;;2.36;91.73
41800;BME280;27468;47.460;19.034;2023-01-25T07:00:08;102001.78;;;2.32;90.98
41800;BME280;27468;47.460;19.034;2023-01-25T07:02:35;102006.41;;;2.39;90.52
41800;BME280;27468;47.460;19.034;2023-01-25T07:05:00;102017.53;;;2.35;89.73
41800;BME280;27468;47.460;19.034;2023-01-25T07:07:25;102009.91;;;2.40;89.35
41800;BME280;27468;47.460;19.034;2023-01-25T07:09:51;102012.03;;;2.50;89.40
41800;BME280;27468;47.460;19.034;2023-01-25T07:12:16;101978.59;;;2.38;89.57
41800;BME280;27468;47.460;19.034;2023-01-25T07:14:43;102002.28;;;2.67;89.74
41800;BME280;27468;47.460;19.034;2023-01-25T07:17:09;101994.81;;;2.76;89.86
41800;BME280;27468;47.460;19.034;2023-01-25T07:19:34;101996.06;;;2.63;88.75
41800;BME280;27468;47.460;19.034;2023-01-25T07:21:59;101958.31;;;2.52;88.36
41800;BME280;27468;47.460;19.034;2023-01-25T07:24:25;101995.94;;;2.82;88.54
41800;BME280;27468;47.460;19.034;2023-01-25T07:26:52;101949.91;;;2.59;88.11
41800;BME280;27468;47.460;19.034;2023-01-25T07:29:18;102001.31;;;2.87;88.07
41800;BME280;27468;47.460;19.034;2023-01-25T07:31:43;101949.91;;;2.59;87.71
41800;BME280;27468;47.460;19.034;2023-01-25T07:34:10;101998.84;;;2.91;87.45
41800;BME280;27468;47.460;19.034;2023-01-25T07:36:37;101944.31;;;2.72;87.39
41800;BME280;27468;47.460;19.034;2023-01-25T07:39:03;101991.09;;;2.93;86.96
41800;BME280;27468;47.460;19.034;2023-01-25T07:41:28;102016.75;;;3.06;86.54
41800;BME280;27468;47.460;19.034;2023-01-25T07:43:54;101998.41;;;3.03;86.77
41800;BME280;27468;47.460;19.034;2023-01-25T07:46:20;102003.41;;;2.97;85.65
41800;BME280;27468;47.460;19.034;2023-01-25T07:48:51;101983.72;;;3.05;85.95
41800;BME280;27468;47.460;19.034;2023-01-25T07:51:19;101988.66;;;2.97;84.98
41800;BME280;27468;47.460;19.034;2023-01-25T07:53:55;102003.41;;;3.21;85.76
41800;BME280;27468;47.460;19.034;2023-01-25T07:56:24;102001.81;;;3.24;85.80
41800;BME280;27468;47.460;19.034;2023-01-25T07:58:51;102006.84;;;3.20;84.58
41800;BME280;27468;47.460;19.034;2023-01-25T08:01:20;101993.09;;;3.24;84.90
41800;BME280;27468;47.460;19.034;2023-01-25T08:03:46;102005.13;;;3.20;84.83
41800;BME280;27468;47.460;19.034;2023-01-25T08:06:12;101987.81;;;3.22;85.09
41800;BME280;27468;47.460;19.034;2023-01-25T08:08:43;102008.44;;;3.40;84.65
41800;BME280;27468;47.460;19.034;2023-01-25T08:11:15;102002.25;;;3.37;84.37
41800;BME280;27468;47.460;19.034;2023-01-25T08:13:41;102005.31;;;3.50;84.45
41800;BME280;27468;47.460;19.034;2023-01-25T08:16:13;102005.13;;;3.44;83.91
41800;BME280;27468;47.460;19.034;2023-01-25T08:18:38;101985.81;;;3.39;84.10
41800;BME280;27468;47.460;19.034;2023-01-25T08:21:04;102002.13;;;3.59;83.87
41800;BME280;27468;47.460;19.034;2023-01-25T08:23:29;101981.16;;;3.56;83.45
41800;BME280;27468;47.460;19.034;2023-01-25T08:25:55;102014.97;;;3.78;83.56
41800;BME280;27468;47.460;19.034;2023-01-25T08:28:25;101998.91;;;3.66;81.50
41800;BME280;27468;47.460;19.034;2023-01-25T08:30:50;101980.00;;;3.46;81.24
41800;BME280;27468;47.460;19.034;2023-01-25T08:33:16;102002.28;;;3.63;81.02
41800;BME280;27468;47.460;19.034;2023-01-25T08:35:41;101991.81;;;3.62;80.81
41800;BME280;27468;47.460;19.034;2023-01-25T08:38:06;101989.66;;;3.76;81.23
41800;BME280;27468;47.460;19.034;2023-01-25T08:40:32;101984.25;;;3.70;80.63
41800;BME280;27468;47.460;19.034;2023-01-25T08:42:57;101993.53;;;3.87;81.40
41800;BME280;27468;47.460;19.034;2023-01-25T08:45:22;101989.97;;;3.85;80.03
41800;BME280;27468;47.460;19.034;2023-01-25T08:47:48;101992.00;;;3.93;80.96
41800;BME280;27468;47.460;19.034;2023-01-25T08:50:13;101985.06;;;3.94;79.92
41800;BME280;27468;47.460;19.034;2023-01-25T08:52:40;101934.59;;;3.67;80.28
41800;BME280;27468;47.460;19.034;2023-01-25T08:55:05;101936.81;;;3.81;80.86
41800;BME280;27468;47.460;19.034;2023-01-25T08:57:31;101982.19;;;4.13;80.19
41800;BME280;27468;47.460;19.034;2023-01-25T08:59:56;101932.78;;;3.91;79.35
41800;BME280;27468;47.460;19.034;2023-01-25T09:02:22;101975.25;;;4.14;78.14
41800;BME280;27468;47.460;19.034;2023-01-25T09:04:47;101987.19;;;4.07;78.16
41800;BME280;27468;47.460;19.034;2023-01-25T09:07:12;101926.44;;;3.83;78.75
41800;BME280;27468;47.460;19.034;2023-01-25T09:09:38;101918.66;;;3.84;78.41
41800;BME280;27468;47.460;19.034;2023-01-25T09:12:04;101976.31;;;4.20;77.86
41800;BME280;27468;47.460;19.034;2023-01-25T09:14:29;101978.63;;;4.11;78.07
41800;BME280;27468;47.460;19.034;2023-01-25T09:16:55;101965.69;;;4.14;78.15
41800;BME280;27468;47.460;19.034;2023-01-25T09:19:20;101972.94;;;4.23;78.30
41800;BME280;27468;47.460;19.034;2023-01-25T09:21:45;101960.75;;;4.23;77.89
41800;BME280;27468;47.460;19.034;2023-01-25T09:24:12;101908.03;;;3.78;76.99
41800;BME280;27468;47.460;19.034;2023-01-25T09:26:40;101913.78;;;3.95;77.27
41800;BME280;27468;47.460;19.034;2023-01-25T09:29:07;101977.50;;;4.02;76.73
41800;BME280;27468;47.460;19.034;2023-01-25T09:31:33;101967.75;;;3.96;76.79
41800;BME280;27468;47.460;19.034;2023-01-25T09:33:59;101969.00;;;4.09;77.12
41800;BME280;27468;47.460;19.034;2023-01-25T09:36:25;101956.50;;;3.98;77.33
41800;BME280;27468;47.460;19.034;2023-01-25T09:38:50;101959.53;;;4.12;77.19
41800;BME280;27468;47.460;19.034;2023-01-25T09:41:36;101909.69;;;4.03;77.38
41800;BME280;27468;47.460;19.034;2023-01-25T09:46:57;101958.44;;;4.32;76.29
41800;BME280;27468;47.460;19.034;2023-01-25T09:54:36;101934.25;;;4.38;76.66
41800;BME280;27468;47.460;19.034;2023-01-25T09:57:10;101897.97;;;4.19;76.16
41800;BME280;27468;47.460;19.034;2023-01-25T09:59:36;101941.03;;;4.33;75.50
41800;BME280;27468;47.460;19.034;2023-01-25T10:02:35;101938.06;;;4.49;75.80
41800;BME280;27468;47.460;19.034;2023-01-25T10:05:07;101934.94;;;4.61;75.63
41800;BME280;27468;47.460;19.034;2023-01-25T10:07:54;101889.31;;;4.50;74.80
41800;BME280;27468;47.460;19.034;2023-01-25T10:10:42;101881.13;;;4.38;74.25
41800;BME280;27468;47.460;19.034;2023-01-25T10:13:13;101870.63;;;4.36;73.99
41800;BME280;27468;47.460;19.034;2023-01-25T10:15:43;101914.19;;;4.67;73.94
41800;BME280;27468;47.460;19.034;2023-01-25T10:20:54;101927.94;;;4.91;73.62
41800;BME280;27468;47.460;19.034;2023-01-25T10:23:40;101907.75;;;4.86;73.23
41800;BME280;27468;47.460;19.034;2023-01-25T10:28:46;101845.84;;;4.22;73.96
41800;BME280;27468;47.460;19.034;2023-01-25T10:31:16;101866.25;;;4.35;74.27
41800;BME280;27468;47.460;19.034;2023-01-25T10:33:43;101896.94;;;4.74;74.12
41800;BME280;27468;47.460;19.034;2023-01-25T10:36:20;101895.44;;;4.82;74.31
41800;BME280;27468;47.460;19.034;2023-01-25T10:38:46;101890.66;;;4.67;73.65
41800;BME280;27468;47.460;19.034;2023-01-25T10:41:44;101874.69;;;4.55;74.04
41800;BME280;27468;47.460;19.034;2023-01-25T10:44:11;101849.63;;;4.61;74.21
41800;BME280;27468;47.460;19.034;2023-01-25T10:52:12;101884.63;;;4.70;73.75
41800;BME280;27468;47.460;19.034;2023-01-25T10:54:38;101874.84;;;4.62;73.50
41800;BME280;27468;47.460;19.034;2023-01-25T10:57:08;101876.63;;;4.63;73.97
41800;BME280;27468;47.460;19.034;2023-01-25T10:59:36;101827.34;;;4.44;73.56
41800;BME280;27468;47.460;19.034;2023-01-25T11:04:50;101829.91;;;4.74;73.70
41800;BME280;27468;47.460;19.034;2023-01-25T11:07:26;101857.00;;;5.09;73.59
41800;BME280;27468;47.460;19.034;2023-01-25T11:09:53;101838.88;;;5.17;73.51
41800;BME280;27468;47.460;19.034;2023-01-25T11:12:20;101852.94;;;5.22;72.65
41800;BME280;27468;47.460;19.034;2023-01-25T11:14:47;101833.38;;;5.06;72.40
41800;BME280;27468;47.460;19.034;2023-01-25T11:19:46;101795.22;;;4.80;72.30
41800;BME280;27468;47.460;19.034;2023-01-25T11:24:43;101841.63;;;5.23;72.45
41800;BME280;27468;47.460;19.034;2023-01-25T11:27:26;101821.84;;;5.34;72.24
41800;BME280;27468;47.460;19.034;2023-01-25T11:32:29;101781.16;;;5.08;71.46
41800;BME280;27468;47.460;19.034;2023-01-25T11:34:55;101762.81;;;5.06;71.46
41800;BME280;27468;47.460;19.034;2023-01-25T11:40:04;101800.03;;;5.32;71.36
41800;BME280;27468;47.460;19.034;2023-01-25T11:51:24;101775.63;;;5.33;71.12
41800;BME280;27468;47.460;19.034;2023-01-25T12:00:25;101749.09;;;5.54;71.04
41800;BME280;27468;47.460;19.034;2023-01-25T12:05:32;101689.44;;;5.38;70.74
41800;BME280;27468;47.460;19.034;2023-01-25T12:10:44;101737.69;;;5.89;70.46
41800;BME280;27468;47.460;19.034;2023-01-25T12:16:14;101730.72;;;5.90;70.05
41800;BME280;27468;47.460;19.034;2023-01-25T12:21:20;101726.47;;;5.95;69.48
41800;BME280;27468;47.460;19.034;2023-01-25T12:23:57;101713.56;;;6.04;69.67
41800;BME280;27468;47.460;19.034;2023-01-25T12:26:40;101698.44;;;5.91;69.14
41800;BME280;27468;47.460;19.034;2023-01-25T12:32:03;101672.75;;;5.72;68.79
41800;BME280;27468;47.460;19.034;2023-01-25T12:34:36;101709.00;;;5.95;69.16
41800;BME280;27468;47.460;19.034;2023-01-25T12:37:16;101696.88;;;5.99;69.53
41800;BME280;27468;47.460;19.034;2023-01-25T12:39:51;101686.22;;;5.90;69.44
41800;BME280;27468;47.460;19.034;2023-01-25T12:42:36;101655.34;;;5.74;69.22
41800;BME280;27468;47.460;19.034;2023-01-25T12:45:14;101703.06;;;6.03;69.04
41800;BME280;27468;47.460;19.034;2023-01-25T12:47:49;101706.50;;;6.00;69.05
41800;BME280;27468;47.460;19.034;2023-01-25T12:50:21;101641.19;;;5.64;69.08
41800;BME280;27468;47.460;19.034;2023-01-25T12:52:53;101696.47;;;5.81;68.95
41800;BME280;27468;47.460;19.034;2023-01-25T12:55:19;101699.00;;;5.78;68.95
41800;BME280;27468;47.460;19.034;2023-01-25T12:57:58;101698.00;;;5.70;69.32
41800;BME280;27468;47.460;19.034;2023-01-25T13:00:42;101690.84;;;5.61;69.33
41800;BME280;27468;47.460;19.034;2023-01-25T13:04:37;101685.06;;;5.79;69.57
41800;BME280;27468;47.460;19.034;2023-01-25T13:06:43;101694.00;;;5.88;69.17
41800;BME280;27468;47.460;19.034;2023-01-25T13:09:23;101683.75;;;5.97;68.97
41800;BME280;27468;47.460;19.034;2023-01-25T13:11:53;101625.41;;;5.59;68.44
41800;BME280;27468;47.460;19.034;2023-01-25T13:14:26;101656.53;;;5.89;68.30
41800;BME280;27468;47.460;19.034;2023-01-25T13:16:53;101618.81;;;5.80;67.76
41800;BME280;27468;47.460;19.034;2023-01-25T13:21:55;101655.16;;;6.08;68.21
41800;BME280;27468;47.460;19.034;2023-01-25T13:24:33;101668.41;;;6.16;68.62
41800;BME280;27468;47.460;19.034;2023-01-25T13:27:04;101661.53;;;6.22;68.63
41800;BME280;27468;47.460;19.034;2023-01-25T13:29:54;101644.66;;;6.07;67.32
41800;BME280;27468;47.460;19.034;2023-01-25T13:34:58;101657.03;;;6.15;67.42
41800;BME280;27468;47.460;19.034;2023-01-25T13:40:03;101650.31;;;6.28;67.92
41800;BME280;27468;47.460;19.034;2023-01-25T13:42:32;101649.31;;;6.21;67.79
41800;BME280;27468;47.460;19.034;2023-01-25T13:45:02;101650.06;;;6.16;68.13
41800;BME280;27468;47.460;19.034;2023-01-25T13:47:31;101636.09;;;6.15;68.03
41800;BME280;27468;47.460;19.034;2023-01-25T13:50:01;101652.91;;;6.26;68.08
41800;BME280;27468;47.460;19.034;2023-01-25T13:52:32;101611.44;;;6.04;67.89
41800;BME280;27468;47.460;19.034;2023-01-25T13:54:58;101641.50;;;6.24;67.95
41800;BME280;27468;47.460;19.034;2023-01-25T13:57:27;101644.16;;;6.26;67.70
41800;BME280;27468;47.460;19.034;2023-01-25T14:00:06;101596.53;;;6.00;67.56
41800;BME280;27468;47.460;19.034;2023-01-25T14:02:36;101636.22;;;6.21;67.86
41800;BME280;27468;47.460;19.034;2023-01-25T14:05:03;101645.97;;;6.30;67.54
41800;BME280;27468;47.460;19.034;2023-01-25T14:07:32;101641.50;;;6.24;67.54
41800;BME280;27468;47.460;19.034;2023-01-25T14:10:07;101644.88;;;6.17;67.43